createdAt,value
2017-05-16T00:00:07.128Z,62.71
2017-05-16T00:10:07.115Z,63.29
2017-05-16T00:20:07.155Z,63.73
2017-05-16T00:30:07.118Z,62.49
2017-05-16T00:40:07.119Z,63.06
2017-05-16T00:50:07.109Z,62.39
2017-05-16T01:00:07.110Z,63.67
2017-05-16T01:10:07.142Z,63.48
2017-05-16T01:20:07.107Z,63.86
2017-05-16T01:30:07.108Z,64.98
2017-05-16T01:40:07.113Z,65.26
2017-05-16T01:50:07.121Z,65.75
2017-05-16T02:00:07.128Z,66.89
2017-05-16T02:10:07.120Z,66.61
2017-05-16T02:20:07.101Z,67.76
2017-05-16T02:30:07.108Z,68.05
2017-05-16T02:40:07.114Z,69.29
2017-05-16T02:50:07.118Z,69.29
2017-05-16T03:00:07.117Z,69.29
2017-05-16T03:10:07.109Z,70.06
2017-05-16T03:20:07.122Z,70.41
2017-05-16T03:30:07.099Z,70.92
2017-05-16T03:40:07.117Z,70.35
2017-05-16T03:50:07.120Z,70.03
2017-05-16T04:00:07.126Z,71.11
2017-05-16T04:10:07.140Z,71.59
2017-05-16T04:20:07.153Z,71.78
2017-05-16T04:30:07.114Z,71.4
2017-05-16T04:40:07.107Z,71.88
2017-05-16T04:50:07.121Z,71.59
2017-05-16T05:00:07.114Z,71.78
2017-05-16T05:10:07.115Z,71.59
2017-05-16T05:20:07.113Z,70.67
2017-05-16T05:30:07.115Z,70.99
2017-05-16T05:40:07.117Z,70.51
2017-05-16T05:50:07.149Z,70.7
2017-05-16T06:00:07.110Z,70.84
2017-05-16T06:10:07.113Z,70.55
2017-05-16T06:20:07.123Z,70.87
2017-05-16T06:30:07.121Z,71.35
2017-05-16T06:40:07.124Z,71.93
2017-05-16T06:50:07.115Z,69.72
2017-05-16T07:00:07.112Z,68.6
2017-05-16T07:10:07.123Z,70.27
2017-05-16T07:20:07.147Z,68.54
2017-05-16T07:30:07.141Z,68.32
2017-05-16T07:40:07.140Z,64.59
2017-05-16T07:50:07.128Z,63.41
2017-05-16T08:00:07.142Z,64.31
2017-05-16T08:10:07.152Z,62.63
2017-05-16T08:20:07.220Z,61.96
2017-05-16T08:30:07.127Z,62.95
2017-05-16T08:40:07.199Z,59.15
2017-05-16T08:50:07.233Z,55.49
2017-05-16T09:00:07.159Z,54.7
2017-05-16T09:10:07.179Z,56.64
2017-05-16T09:20:07.179Z,57.84
2017-05-16T09:30:07.164Z,56.9
2017-05-16T09:40:07.193Z,56.09
2017-05-16T09:50:07.155Z,54.9
2017-05-16T10:00:07.168Z,55.63
2017-05-16T10:10:07.206Z,55.17
2017-05-16T10:20:07.173Z,53.91
2017-05-16T10:30:07.214Z,54.8
2017-05-16T10:40:07.183Z,55.49
2017-05-16T10:50:07.182Z,54.88
2017-05-16T11:00:07.187Z,52.69
2017-05-16T11:10:07.200Z,51.07
2017-05-16T11:20:07.199Z,52.62
2017-05-16T11:30:07.242Z,53.28
2017-05-16T11:40:07.223Z,54
2017-05-16T11:50:07.209Z,55.07
2017-05-16T12:00:07.187Z,52.55
2017-05-16T12:10:07.203Z,54.58
2017-05-16T12:20:07.223Z,52.28
2017-05-16T12:30:07.199Z,50.16
2017-05-16T12:40:07.298Z,51.07
2017-05-16T12:50:07.219Z,51.58
2017-05-16T13:00:07.215Z,49.99
2017-05-16T13:10:07.217Z,49.34
2017-05-16T13:20:07.215Z,50.51
2017-05-16T13:30:07.202Z,50.56
2017-05-16T13:40:07.229Z,51.23
2017-05-16T13:50:07.245Z,51.21
2017-05-16T14:00:07.239Z,49.97
2017-05-16T14:10:07.248Z,49.32
2017-05-16T14:20:07.244Z,48.66
2017-05-16T14:30:07.242Z,48.95
2017-05-16T14:40:07.295Z,48.56
2017-05-16T14:50:07.251Z,49.73
2017-05-16T15:00:07.252Z,48.78
2017-05-16T15:10:07.241Z,49.37
2017-05-16T15:20:07.228Z,51.33
2017-05-16T15:30:07.256Z,51.11
2017-05-16T15:40:07.269Z,51.6
2017-05-16T15:50:07.266Z,51.57
2017-05-16T16:00:07.293Z,54.49
2017-05-16T16:10:07.273Z,54.68
2017-05-16T16:20:07.267Z,55.04
2017-05-16T16:30:07.338Z,55.73
2017-05-16T16:40:07.264Z,56.01
2017-05-16T16:50:07.270Z,57.18
2017-05-16T17:00:07.301Z,57.86
2017-05-16T17:10:07.265Z,61.94
2017-05-16T17:20:07.263Z,59.41
2017-05-16T17:30:07.271Z,57.93
2017-05-16T17:40:07.308Z,61.88
2017-05-16T17:50:07.296Z,61.26
2017-05-16T18:00:07.287Z,60.58
2017-05-16T18:10:07.283Z,64.14
2017-05-16T18:20:07.295Z,64.2
2017-05-16T18:30:07.321Z,66.14
2017-05-16T18:40:07.293Z,67.27
2017-05-16T18:50:07.301Z,67.91
2017-05-16T19:00:07.299Z,69.72
2017-05-16T19:10:07.307Z,70.5
2017-05-16T19:20:07.305Z,71.33
2017-05-16T19:30:07.317Z,72.36
2017-05-16T19:40:07.304Z,74.16
2017-05-16T19:50:07.296Z,74.51
2017-05-16T20:00:07.321Z,76.15
2017-05-16T20:10:07.347Z,76.92
2017-05-16T20:20:07.314Z,78.81
2017-05-16T20:30:07.315Z,80.16
2017-05-16T20:40:07.406Z,82.24
2017-05-16T20:50:07.366Z,84.03
2017-05-16T21:00:07.306Z,86.01
2017-05-16T21:10:07.345Z,87.9
2017-05-16T21:20:07.337Z,90.01
2017-05-16T21:30:07.323Z,91.41
2017-05-16T21:40:07.318Z,93.15
2017-05-16T21:50:07.324Z,94.3
2017-05-16T22:00:07.328Z,94.97
2017-05-16T22:10:07.316Z,97.76
2017-05-16T22:20:07.329Z,97.96
2017-05-16T22:30:07.316Z,97.52
2017-05-16T22:40:07.310Z,97.96
2017-05-16T22:50:07.330Z,98.34
2017-05-16T23:00:07.496Z,97.52
2017-05-16T23:10:07.324Z,95.98
2017-05-16T23:20:07.393Z,94.78
2017-05-16T23:30:07.313Z,94.25
2017-05-16T23:40:07.320Z,94.92
2017-05-16T23:50:07.313Z,95.02
